Time;durP1;ratioP1;P1;durP2;ratioP2;P2;SDS_P1;SDS_P2;PMS_P1;PMS_P2;Temp;Humidity;BMP_temperature;BMP_pressure;BME280_temperature;BME280_humidity;BME280_pressure;Samples;Min_cycle;Max_cycle;Signal;HPM_P1;HPM_P2
2024/01/07 00:01:38;;;;;;;15.93;10.60;;;;;;;;;;6201571;23;20154;-88
2024/01/07 00:04:06;;;;;;;15.55;10.57;;;;;;;;;;6205314;23;20087;-87
2024/01/07 00:06:34;;;;;;;16.60;11.07;;;;;;;;;;6204109;23;20024;-88
2024/01/07 00:09:01;;;;;;;;;;;;;;;;;;6205788;23;20016;-87
2024/01/07 00:11:27;;;;;;;15.10;10.95;;;;;;;;;;6178082;23;19916;-87
2024/01/07 00:13:55;;;;;;;17.50;12.25;;;;;;;;;;6180035;23;20692;-87
2024/01/07 00:16:23;;;;;;;15.68;11.30;;;;;;;;;;6220842;22;20023;-87
2024/01/07 00:18:49;;;;;;;15.73;11.38;;;;;;;;;;6241359;22;20120;-87
2024/01/07 00:21:17;;;;;;;15.55;11.10;;;;;;;;;;6265594;22;20015;-87
2024/01/07 00:23:46;;;;;;;17.38;12.23;;;;;;;;;;6240299;22;20045;-88
2024/01/07 00:26:13;;;;;;;16.90;11.98;;;;;;;;;;6219008;22;20343;-88
2024/01/07 00:28:42;;;;;;;18.25;12.48;;;;;;;;;;6241524;22;20045;-87
2024/01/07 00:31:09;;;;;;;15.98;11.95;;;;;;;;;;6217513;22;20019;-88
2024/01/07 00:33:37;;;;;;;18.73;12.85;;;;;;;;;;6215655;22;20054;-87
2024/01/07 00:36:06;;;;;;;17.88;12.05;;;;;;;;;;6239553;22;20026;-87
2024/01/07 00:38:34;;;;;;;16.50;11.95;;;;;;;;;;6290756;22;20076;-88
2024/01/07 00:41:00;;;;;;;18.98;12.55;;;;;;;;;;6218148;22;20019;-88
2024/01/07 00:43:27;;;;;;;18.48;12.77;;;;;;;;;;6219835;22;20012;-87
2024/01/07 00:46:06;;;;;;;17.55;12.00;;;;;;;;;;6272483;22;20451;-87
2024/01/07 00:48:35;;;;;;;18.27;11.88;;;;;;;;;;6239629;22;20082;-87
2024/01/07 00:51:04;;;;;;;19.48;12.32;;;;;;;;;;6295007;22;20457;-88
2024/01/07 00:53:31;;;;;;;18.73;12.32;;;;;;;;;;6241413;22;20027;-88
2024/01/07 00:56:00;;;;;;;16.27;12.35;;;;;;;;;;6243178;22;20019;-87
2024/01/07 00:58:37;;;;;;;15.82;11.23;;;;;;;;;;6268854;22;20048;-88
2024/01/07 01:01:09;;;;;;;15.73;11.93;;;;;;;;;;6268073;22;20023;-87
2024/01/07 01:03:37;;;;;;;18.20;11.63;;;;;;;;;;6200559;23;20020;-88
2024/01/07 01:06:04;;;;;;;14.48;11.57;;;;;;;;;;6207433;23;20021;-88
2024/01/07 01:08:33;;;;;;;15.50;11.23;;;;;;;;;;6235617;22;20065;-87
2024/01/07 01:11:01;;;;;;;16.90;11.45;;;;;;;;;;6211903;22;20048;-87
2024/01/07 01:13:32;;;;;;;15.18;11.10;;;;;;;;;;6209908;22;20023;-87
2024/01/07 01:16:01;;;;;;;16.20;11.63;;;;;;;;;;6235834;22;20103;-87
2024/01/07 01:18:27;;;;;;;;;;;;;;;;;;6186372;22;20167;-88
2024/01/07 01:20:57;;;;;;;15.38;11.52;;;;;;;;;;6236986;22;19915;-87
2024/01/07 01:23:24;;;;;;;17.05;11.68;;;;;;;;;;6212172;22;20069;-88
2024/01/07 01:25:53;;;;;;;17.70;12.18;;;;;;;;;;6184789;22;20118;-87
2024/01/07 01:28:20;;;;;;;;;;;;;;;;;;6187192;22;20020;-87
2024/01/07 01:30:49;;;;;;;15.68;11.02;;;;;;;;;;6209426;22;19968;-87
2024/01/07 01:33:18;;;;;;;16.75;11.55;;;;;;;;;;6187181;22;20011;-87
2024/01/07 01:35:45;;;;;;;16.15;12.00;;;;;;;;;;6184822;22;20012;-88
2024/01/07 01:38:13;;;;;;;15.93;11.30;;;;;;;;;;6237248;22;20018;-88
2024/01/07 01:40:39;;;;;;;;;;;;;;;;;;6185444;22;20085;-88
2024/01/07 01:43:07;;;;;;;15.57;10.88;;;;;;;;;;6211854;22;20605;-87
2024/01/07 01:45:33;;;;;;;17.38;12.35;;;;;;;;;;6186199;22;20094;-88
2024/01/07 01:48:02;;;;;;;16.10;11.05;;;;;;;;;;6184054;22;20058;-87
2024/01/07 01:50:30;;;;;;;14.13;10.05;;;;;;;;;;6208940;22;20011;-87
2024/01/07 01:52:57;;;;;;;;;;;;;;;;;;6186635;22;20047;-87
2024/01/07 01:55:25;;;;;;;13.98;10.35;;;;;;;;;;6211519;22;19923;-88
2024/01/07 01:57:52;;;;;;;15.10;11.38;;;;;;;;;;6187654;22;20500;-88
2024/01/07 02:00:21;;;;;;;14.43;10.68;;;;;;;;;;6185110;22;20093;-87
2024/01/07 02:02:49;;;;;;;15.65;11.25;;;;;;;;;;6208975;22;20095;-88
2024/01/07 02:05:16;;;;;;;15.57;11.02;;;;;;;;;;6210850;22;20055;-88
2024/01/07 02:07:44;;;;;;;15.53;11.27;;;;;;;;;;6184264;22;20152;-87
2024/01/07 02:10:14;;;;;;;14.25;10.02;;;;;;;;;;6202568;22;20582;-87
2024/01/07 02:12:42;;;;;;;12.45;10.15;;;;;;;;;;6235327;22;20102;-87
2024/01/07 02:15:11;;;;;;;14.02;10.05;;;;;;;;;;6186605;22;20098;-88
2024/01/07 02:17:40;;;;;;;14.20;10.60;;;;;;;;;;6184245;22;20066;-88
2024/01/07 02:20:11;;;;;;;15.55;9.95;;;;;;;;;;6263342;22;20234;-88
2024/01/07 02:22:39;;;;;;;12.93;9.57;;;;;;;;;;6186632;22;20027;-87
2024/01/07 02:25:06;;;;;;;13.43;9.23;;;;;;;;;;6237276;22;20309;-87
2024/01/07 02:27:33;;;;;;;13.80;10.23;;;;;;;;;;6209570;22;20011;-87
2024/01/07 02:30:01;;;;;;;13.63;9.45;;;;;;;;;;6207699;22;20099;-87
2024/01/07 02:32:27;;;;;;;13.93;10.20;;;;;;;;;;6185768;22;20301;-87
2024/01/07 02:34:55;;;;;;;12.93;9.93;;;;;;;;;;6209401;22;20031;-87
2024/01/07 02:37:23;;;;;;;14.15;9.77;;;;;;;;;;6185983;22;20027;-88
2024/01/07 02:39:49;;;;;;;;;;;;;;;;;;6211315;22;20434;-88
2024/01/07 02:42:20;;;;;;;13.98;9.43;;;;;;;;;;6236927;22;19911;-87
2024/01/07 02:44:47;;;;;;;12.18;9.10;;;;;;;;;;6184180;22;20023;-88
2024/01/07 02:47:13;;;;;;;13.88;9.82;;;;;;;;;;6212033;22;20073;-87
2024/01/07 02:49:42;;;;;;;13.95;9.48;;;;;;;;;;6203910;22;20019;-87
2024/01/07 02:52:11;;;;;;;16.23;9.73;;;;;;;;;;6186082;22;20015;-87
2024/01/07 02:54:39;;;;;;;11.82;9.15;;;;;;;;;;6184692;22;20062;-88
2024/01/07 02:57:07;;;;;;;;;;;;;;;;;;6188228;22;20314;-88
2024/01/07 02:59:34;;;;;;;10.70;8.98;;;;;;;;;;6209149;22;19922;-88
2024/01/07 03:02:05;;;;;;;13.00;9.32;;;;;;;;;;6187407;22;20450;-88
2024/01/07 03:04:31;;;;;;;12.02;8.25;;;;;;;;;;6234444;22;20020;-88
2024/01/07 03:06:57;;;;;;;10.60;8.10;;;;;;;;;;6211969;22;20016;-87
2024/01/07 03:09:27;;;;;;;10.30;7.65;;;;;;;;;;6230954;22;20359;-88
2024/01/07 03:12:06;;;;;;;11.23;8.43;;;;;;;;;;6214235;22;20066;-87
2024/01/07 03:14:35;;;;;;;11.90;7.57;;;;;;;;;;6184054;22;20019;-88
2024/01/07 03:17:02;;;;;;;9.52;7.35;;;;;;;;;;6186088;22;20034;-87
2024/01/07 03:19:30;;;;;;;10.25;7.45;;;;;;;;;;6225583;22;20367;-88
2024/01/07 03:21:58;;;;;;;9.70;7.70;;;;;;;;;;6211253;22;20015;-87
2024/01/07 03:24:29;;;;;;;;;;;;;;;;;;6211218;22;20023;-87
2024/01/07 03:26:58;;;;;;;11.90;8.20;;;;;;;;;;6211544;22;19922;-87
2024/01/07 03:29:26;;;;;;;9.52;7.85;;;;;;;;;;6187541;22;20058;-87
2024/01/07 03:31:54;;;;;;;;;;;;;;;;;;6185136;22;20019;-87
2024/01/07 03:34:21;;;;;;;9.20;7.18;;;;;;;;;;6209961;22;19911;-87
2024/01/07 03:36:49;;;;;;;9.38;6.55;;;;;;;;;;6207791;22;20015;-87
2024/01/07 03:39:16;;;;;;;9.75;7.32;;;;;;;;;;6187668;22;20019;-88
2024/01/07 03:41:45;;;;;;;9.20;7.10;;;;;;;;;;6210346;22;20027;-87
2024/01/07 03:44:22;;;;;;;10.18;7.20;;;;;;;;;;6241317;22;20546;-87
2024/01/07 03:46:48;;;;;;;8.40;7.28;;;;;;;;;;6235338;22;20025;-87
2024/01/07 03:49:17;;;;;;;9.38;7.00;;;;;;;;;;6239640;22;20015;-87
2024/01/07 03:51:44;;;;;;;;;;;;;;;;;;6188351;22;20016;-88
2024/01/07 03:54:13;;;;;;;9.07;6.53;;;;;;;;;;6213135;22;19919;-87
2024/01/07 03:56:40;;;;;;;;;;;;;;;;;;6212685;22;20151;-87
2024/01/07 03:59:07;;;;;;;7.13;5.93;;;;;;;;;;6212937;22;19922;-87
2024/01/07 04:01:35;;;;;;;7.60;6.13;;;;;;;;;;6206903;22;20024;-88
2024/01/07 04:04:02;;;;;;;11.70;6.70;;;;;;;;;;6221785;22;20031;-88
2024/01/07 04:06:30;;;;;;;9.10;6.53;;;;;;;;;;6236373;22;20023;-88
2024/01/07 04:08:57;;;;;;;8.48;6.50;;;;;;;;;;6213500;22;20015;-88
2024/01/07 04:11:25;;;;;;;7.75;6.30;;;;;;;;;;6263853;22;20064;-88
2024/01/07 04:13:53;;;;;;;7.78;5.50;;;;;;;;;;6236001;22;20410;-88
2024/01/07 04:16:24;;;;;;;9.18;6.05;;;;;;;;;;6237414;22;20023;-87
2024/01/07 04:18:51;;;;;;;7.72;5.80;;;;;;;;;;6236755;22;20022;-87
2024/01/07 04:21:19;;;;;;;8.35;6.20;;;;;;;;;;6264368;22;20741;-88
2024/01/07 04:23:56;;;;;;;9.02;5.93;;;;;;;;;;6262303;22;20020;-87
2024/01/07 04:26:25;;;;;;;9.25;5.85;;;;;;;;;;6236383;22;20008;-88
2024/01/07 04:29:12;;;;;;;8.00;5.60;;;;;;;;;;6261133;22;20019;-88
2024/01/07 04:31:41;;;;;;;7.35;5.32;;;;;;;;;;6210528;22;20062;-88
2024/01/07 04:34:09;;;;;;;5.55;4.97;;;;;;;;;;6264037;22;20016;-88
2024/01/07 04:36:47;;;;;;;7.70;5.60;;;;;;;;;;6265099;22;20065;-88
2024/01/07 04:39:16;;;;;;;6.07;5.07;;;;;;;;;;6214316;22;20026;-88
2024/01/07 04:41:44;;;;;;;6.60;5.32;;;;;;;;;;6212375;22;20016;-88
2024/01/07 04:44:21;;;;;;;7.57;5.40;;;;;;;;;;6218123;22;20073;-87
2024/01/07 04:46:50;;;;;;;8.15;5.32;;;;;;;;;;6210679;22;20023;-88
2024/01/07 04:49:18;;;;;;;7.47;5.35;;;;;;;;;;6236014;22;20015;-88
2024/01/07 04:51:47;;;;;;;7.35;5.10;;;;;;;;;;6233623;22;20069;-88
2024/01/07 04:54:14;;;;;;;5.97;4.40;;;;;;;;;;6214113;22;20023;-88
2024/01/07 04:56:41;;;;;;;5.72;4.25;;;;;;;;;;6210443;22;20027;-88
2024/01/07 04:59:10;;;;;;;6.07;4.60;;;;;;;;;;6238308;22;20038;-88
2024/01/07 05:01:37;;;;;;;6.07;4.13;;;;;;;;;;6235364;22;20027;-88
2024/01/07 05:04:03;;;;;;;4.40;3.88;;;;;;;;;;6231926;22;20091;-88
2024/01/07 05:06:29;;;;;;;5.18;3.88;;;;;;;;;;6209212;22;20027;-88
2024/01/07 05:08:57;;;;;;;5.35;3.72;;;;;;;;;;6207695;22;20012;-87
2024/01/07 05:11:25;;;;;;;4.18;3.63;;;;;;;;;;6212361;22;20453;-88
2024/01/07 05:13:52;;;;;;;4.68;3.97;;;;;;;;;;6209899;22;20422;-88
2024/01/07 05:16:19;;;;;;;3.70;3.35;;;;;;;;;;6212874;22;20020;-88
2024/01/07 05:18:48;;;;;;;4.82;4.05;;;;;;;;;;6234951;22;20015;-88
2024/01/07 05:21:22;;;;;;;4.28;3.60;;;;;;;;;;6239243;22;20019;-88
2024/01/07 05:23:50;;;;;;;4.20;3.75;;;;;;;;;;6209444;22;20099;-88
2024/01/07 05:26:17;;;;;;;6.32;3.60;;;;;;;;;;6212241;22;20016;-88
2024/01/07 05:28:46;;;;;;;6.07;4.07;;;;;;;;;;6261521;22;20378;-88
2024/01/07 05:31:20;;;;;;;6.30;3.72;;;;;;;;;;6239573;22;20483;-88
2024/01/07 05:33:48;;;;;;;6.05;3.72;;;;;;;;;;6235836;22;20031;-88
2024/01/07 05:36:21;;;;;;;5.90;3.97;;;;;;;;;;6236934;22;20027;-88
2024/01/07 05:38:48;;;;;;;4.18;3.67;;;;;;;;;;6236482;22;20051;-88
2024/01/07 05:41:15;;;;;;;3.83;3.25;;;;;;;;;;6212316;22;20011;-88
2024/01/07 05:43:44;;;;;;;6.70;4.53;;;;;;;;;;6234686;22;20031;-88
2024/01/07 05:46:13;;;;;;;4.57;3.33;;;;;;;;;;6213216;22;20015;-88
2024/01/07 05:49:03;;;;;;;5.88;3.08;;;;;;;;;;6235838;22;20043;-88
2024/01/07 05:51:30;;;;;;;5.43;3.65;;;;;;;;;;6261151;22;20086;-88
2024/01/07 05:53:59;;;;;;;5.72;3.47;;;;;;;;;;6237421;22;20046;-88
2024/01/07 05:56:31;;;;;;;5.50;2.92;;;;;;;;;;6263519;22;20027;-88
2024/01/07 05:58:59;;;;;;;3.60;3.05;;;;;;;;;;6214405;22;20023;-88
2024/01/07 06:01:29;;;;;;;4.45;3.15;;;;;;;;;;6212538;22;20105;-88
2024/01/07 06:03:57;;;;;;;6.45;3.05;;;;;;;;;;6235565;22;20416;-88
2024/01/07 06:06:29;;;;;;;2.80;2.60;;;;;;;;;;6239016;22;20011;-89
2024/01/07 06:08:57;;;;;;;4.45;2.80;;;;;;;;;;6234900;22;20023;-89
2024/01/07 06:11:30;;;;;;;3.33;2.73;;;;;;;;;;6237283;22;20011;-88
2024/01/07 06:13:57;;;;;;;3.30;2.90;;;;;;;;;;6239270;22;20090;-89
2024/01/07 06:16:24;;;;;;;3.05;2.50;;;;;;;;;;6232558;22;20436;-88
2024/01/07 06:18:51;;;;;;;5.47;2.78;;;;;;;;;;6208501;22;20478;-88
2024/01/07 06:21:20;;;;;;;3.13;2.37;;;;;;;;;;6237660;22;20015;-88
2024/01/07 06:23:47;;;;;;;;;;;;;;;;;;6210686;22;20064;-88
2024/01/07 06:26:16;;;;;;;2.97;2.03;;;;;;;;;;6238582;22;19922;-88
2024/01/07 06:28:45;;;;;;;4.72;2.85;;;;;;;;;;6211710;22;20011;-88
2024/01/07 06:31:14;;;;;;;4.03;2.67;;;;;;;;;;6212351;22;20103;-87
2024/01/07 06:33:52;;;;;;;5.00;2.53;;;;;;;;;;6260459;22;20339;-88
2024/01/07 06:36:19;;;;;;;3.55;2.58;;;;;;;;;;6237613;22;20118;-89
2024/01/07 06:38:50;;;;;;;2.33;2.10;;;;;;;;;;6211752;22;20019;-88
2024/01/07 06:41:17;;;;;;;2.87;2.27;;;;;;;;;;6212457;22;20019;-88
2024/01/07 06:43:45;;;;;;;4.00;2.47;;;;;;;;;;6207820;22;20440;-87
2024/01/07 06:46:12;;;;;;;4.15;2.45;;;;;;;;;;6235498;22;20567;-88
2024/01/07 06:48:40;;;;;;;3.33;2.50;;;;;;;;;;6210514;22;20078;-89
2024/01/07 06:51:06;;;;;;;2.83;2.13;;;;;;;;;;6236710;22;20020;-89
2024/01/07 06:53:36;;;;;;;2.83;2.38;;;;;;;;;;6204041;22;20041;-88
2024/01/07 06:56:08;;;;;;;2.75;2.40;;;;;;;;;;6237319;22;20016;-88
2024/01/07 06:58:35;;;;;;;2.90;2.40;;;;;;;;;;6210350;22;20019;-88
2024/01/07 07:01:02;;;;;;;3.20;2.50;;;;;;;;;;6212640;22;20339;-88
2024/01/07 07:03:28;;;;;;;3.88;2.33;;;;;;;;;;6208407;22;20403;-88
2024/01/07 07:05:55;;;;;;;3.30;2.20;;;;;;;;;;6236286;22;20051;-88
2024/01/07 07:08:23;;;;;;;3.97;2.38;;;;;;;;;;6237208;22;20020;-88
2024/01/07 07:10:52;;;;;;;3.53;2.20;;;;;;;;;;6233898;22;20082;-88
2024/01/07 07:13:22;;;;;;;2.80;2.13;;;;;;;;;;6237674;22;20015;-88
2024/01/07 07:15:50;;;;;;;3.80;2.58;;;;;;;;;;6209268;22;20478;-88
2024/01/07 07:18:18;;;;;;;4.18;2.35;;;;;;;;;;6212969;22;20454;-88
2024/01/07 07:20:48;;;;;;;2.55;2.17;;;;;;;;;;6212052;22;20011;-88
2024/01/07 07:23:15;;;;;;;2.92;2.05;;;;;;;;;;6214863;22;20016;-88
2024/01/07 07:25:44;;;;;;;4.68;2.47;;;;;;;;;;6236191;22;20031;-88
2024/01/07 07:28:12;;;;;;;2.92;2.13;;;;;;;;;;6262103;22;20314;-88
2024/01/07 07:30:50;;;;;;;2.42;2.08;;;;;;;;;;6238161;22;20019;-88
2024/01/07 07:33:17;;;;;;;2.20;1.95;;;;;;;;;;6214038;22;20039;-88
2024/01/07 07:35:46;;;;;;;2.95;2.13;;;;;;;;;;6232286;22;20023;-88
2024/01/07 07:38:15;;;;;;;2.42;1.80;;;;;;;;;;6264285;22;20099;-87
2024/01/07 07:40:45;;;;;;;4.32;2.10;;;;;;;;;;6260381;22;20321;-88
2024/01/07 07:43:13;;;;;;;2.88;2.10;;;;;;;;;;6263846;22;20027;-88
2024/01/07 07:45:39;;;;;;;4.28;2.28;;;;;;;;;;6234780;22;20012;-88
2024/01/07 07:48:08;;;;;;;4.38;2.20;;;;;;;;;;6238544;22;20026;-88
2024/01/07 07:50:35;;;;;;;;;;;;;;;;;;6236918;22;20016;-88
2024/01/07 07:53:03;;;;;;;2.20;2.00;;;;;;;;;;6263932;22;19939;-88
2024/01/07 07:55:30;;;;;;;;;;;;;;;;;;6236664;22;20020;-87
2024/01/07 07:58:01;;;;;;;3.42;2.05;;;;;;;;;;6263401;22;19911;-87
2024/01/07 08:00:29;;;;;;;4.30;2.10;;;;;;;;;;6211904;22;20015;-87
2024/01/07 08:02:59;;;;;;;4.47;2.53;;;;;;;;;;6215648;22;20019;-88
2024/01/07 08:05:36;;;;;;;3.55;2.17;;;;;;;;;;6238079;22;20027;-87
2024/01/07 08:08:04;;;;;;;4.25;1.95;;;;;;;;;;6201288;22;20455;-88
2024/01/07 08:10:32;;;;;;;2.20;2.00;;;;;;;;;;6185231;22;20083;-88
2024/01/07 08:12:59;;;;;;;;;;;;;;;;;;6211679;22;20015;-87
2024/01/07 08:15:31;;;;;;;2.53;1.92;;;;;;;;;;6237947;22;19982;-87
2024/01/07 08:18:03;;;;;;;5.40;2.53;;;;;;;;;;6186842;22;20029;-88
2024/01/07 08:20:30;;;;;;;2.45;2.00;;;;;;;;;;6210343;22;20344;-88
2024/01/07 08:23:00;;;;;;;3.17;1.90;;;;;;;;;;6238487;22;20015;-87
2024/01/07 08:25:27;;;;;;;3.58;2.42;;;;;;;;;;6210777;22;20769;-87
2024/01/07 08:27:59;;;;;;;3.80;2.07;;;;;;;;;;6233202;22;20062;-89
2024/01/07 08:30:26;;;;;;;5.15;1.95;;;;;;;;;;6188816;22;20256;-88
2024/01/07 08:32:56;;;;;;;3.17;1.95;;;;;;;;;;6212264;22;20081;-90
2024/01/07 08:35:28;;;;;;;3.25;1.98;;;;;;;;;;6188477;22;20074;-90
2024/01/07 08:38:10;;;;;;;2.85;1.88;;;;;;;;;;6220859;22;20023;-89
2024/01/07 08:40:42;;;;;;;2.65;1.65;;;;;;;;;;6186312;22;20022;-90
2024/01/07 08:43:10;;;;;;;1.95;1.75;;;;;;;;;;6213020;22;20077;-90
2024/01/07 08:45:37;;;;;;;;;;;;;;;;;;6184925;22;20072;-90
2024/01/07 08:48:06;;;;;;;3.17;1.70;;;;;;;;;;6238928;22;19993;-90
2024/01/07 08:50:36;;;;;;;2.20;1.90;;;;;;;;;;6187322;22;20015;-90
2024/01/07 08:53:07;;;;;;;2.47;2.20;;;;;;;;;;6214738;22;20012;-90
2024/01/07 08:55:39;;;;;;;1.77;1.67;;;;;;;;;;6186601;22;20102;-90
2024/01/07 08:58:20;;;;;;;3.90;1.90;;;;;;;;;;6213912;22;20016;-90
2024/01/07 09:00:58;;;;;;;3.30;1.90;;;;;;;;;;6215789;22;20145;-90
2024/01/07 09:03:37;;;;;;;2.08;1.88;;;;;;;;;;6236860;22;20038;-90
2024/01/07 09:06:05;;;;;;;2.00;1.80;;;;;;;;;;6189168;22;20020;-90
2024/01/07 09:08:34;;;;;;;2.03;1.83;;;;;;;;;;6211957;22;20012;-90
2024/01/07 09:11:02;;;;;;;3.30;1.90;;;;;;;;;;6213627;22;20026;-89
2024/01/07 09:13:31;;;;;;;2.63;1.90;;;;;;;;;;6185562;22;20347;-90
2024/01/07 09:15:58;;;;;;;2.42;2.03;;;;;;;;;;6212690;22;20073;-89
2024/01/07 09:18:27;;;;;;;3.67;1.87;;;;;;;;;;6212361;22;20628;-90
2024/01/07 09:20:58;;;;;;;3.15;2.00;;;;;;;;;;6239305;22;20247;-89
2024/01/07 09:23:30;;;;;;;1.98;1.60;;;;;;;;;;6214150;22;20087;-90
2024/01/07 09:25:59;;;;;;;2.67;1.73;;;;;;;;;;6211022;22;20557;-90
2024/01/07 09:28:32;;;;;;;2.72;2.00;;;;;;;;;;6211745;22;20071;-89
2024/01/07 09:30:59;;;;;;;3.67;1.58;;;;;;;;;;6212877;22;20024;-90
2024/01/07 09:33:29;;;;;;;1.73;1.53;;;;;;;;;;6185051;22;20054;-90
2024/01/07 09:35:55;;;;;;;1.88;1.70;;;;;;;;;;6187435;22;20027;-90
2024/01/07 09:38:24;;;;;;;4.03;1.63;;;;;;;;;;6186642;22;20320;-90
2024/01/07 09:40:54;;;;;;;3.42;1.80;;;;;;;;;;6202593;22;20024;-90
2024/01/07 09:43:32;;;;;;;4.03;1.80;;;;;;;;;;6188432;22;20065;-90
2024/01/07 09:45:59;;;;;;;2.85;1.98;;;;;;;;;;6186605;22;20435;-88
2024/01/07 09:48:29;;;;;;;1.77;1.40;;;;;;;;;;6208209;22;20026;-90
2024/01/07 09:50:59;;;;;;;2.17;1.80;;;;;;;;;;6190032;22;20431;-90
2024/01/07 09:53:29;;;;;;;3.17;1.75;;;;;;;;;;6214275;22;20011;-89
2024/01/07 09:55:59;;;;;;;2.15;1.80;;;;;;;;;;6213463;22;20019;-89
2024/01/07 09:58:31;;;;;;;4.38;2.17;;;;;;;;;;6213490;22;20019;-90
2024/01/07 10:01:09;;;;;;;3.67;1.80;;;;;;;;;;6215712;22;20118;-89
2024/01/07 10:03:39;;;;;;;2.80;2.03;;;;;;;;;;6215415;22;20019;-89
2024/01/07 10:06:07;;;;;;;2.42;2.03;;;;;;;;;;6212411;22;20142;-90
2024/01/07 10:08:42;;;;;;;1.77;1.60;;;;;;;;;;6235825;22;20007;-90
2024/01/07 10:11:10;;;;;;;2.35;1.60;;;;;;;;;;6209790;22;20016;-90
2024/01/07 10:13:38;;;;;;;3.28;2.20;;;;;;;;;;6233098;22;20422;-90
2024/01/07 10:16:09;;;;;;;3.75;1.70;;;;;;;;;;6236816;22;20099;-89
2024/01/07 10:18:37;;;;;;;;;;;;;;;;;;6234939;22;20012;-88
2024/01/07 10:21:08;;;;;;;2.55;1.92;;;;;;;;;;6237330;22;19919;-89
2024/01/07 10:23:37;;;;;;;4.32;2.00;;;;;;;;;;6212977;22;20011;-90
2024/01/07 10:26:10;;;;;;;2.60;2.05;;;;;;;;;;6238716;22;20008;-90
2024/01/07 10:28:40;;;;;;;5.90;2.10;;;;;;;;;;6231639;22;20065;-90
2024/01/07 10:31:10;;;;;;;2.75;1.90;;;;;;;;;;6236273;22;20065;-89
2024/01/07 10:33:38;;;;;;;2.28;1.77;;;;;;;;;;6208578;22;20126;-89
2024/01/07 10:36:08;;;;;;;2.08;1.88;;;;;;;;;;6208376;22;20019;-90
2024/01/07 10:38:40;;;;;;;3.63;2.20;;;;;;;;;;6258836;22;20011;-90
2024/01/07 10:41:09;;;;;;;3.95;2.22;;;;;;;;;;6249676;22;20431;-89
2024/01/07 10:43:54;;;;;;;5.20;2.22;;;;;;;;;;6236798;22;20027;-89
2024/01/07 10:46:26;;;;;;;3.83;2.00;;;;;;;;;;6206601;22;20360;-89
2024/01/07 10:49:05;;;;;;;2.65;1.95;;;;;;;;;;6263468;22;20015;-89
2024/01/07 10:51:34;;;;;;;3.05;1.92;;;;;;;;;;6205069;22;20160;-90
2024/01/07 10:54:01;;;;;;;2.40;2.00;;;;;;;;;;6212550;22;20094;-90
2024/01/07 10:56:50;;;;;;;3.58;2.00;;;;;;;;;;6210173;22;20079;-91
2024/01/07 10:59:24;;;;;;;3.38;1.98;;;;;;;;;;6216896;22;20026;-91
2024/01/07 11:01:52;;;;;;;2.80;1.90;;;;;;;;;;6233157;22;20150;-90
2024/01/07 11:04:27;;;;;;;2.63;2.00;;;;;;;;;;6211778;22;20137;-91
2024/01/07 11:07:08;;;;;;;2.92;2.17;;;;;;;;;;6237169;22;20426;-91
2024/01/07 11:09:45;;;;;;;3.47;1.83;;;;;;;;;;6209635;22;20542;-90
2024/01/07 11:12:14;;;;;;;2.67;1.98;;;;;;;;;;6213700;22;20450;-91
2024/01/07 11:14:42;;;;;;;;;;;;;;;;;;6210471;22;20027;-91
2024/01/07 11:17:10;;;;;;;2.85;1.60;;;;;;;;;;6258004;22;20640;-90
2024/01/07 11:19:36;;;;;;;3.38;1.73;;;;;;;;;;6211782;22;20034;-91
2024/01/07 11:22:27;;;;;;;2.55;2.05;;;;;;;;;;6238199;22;20012;-91
2024/01/07 11:25:01;;;;;;;2.92;1.75;;;;;;;;;;6258862;22;20020;-88
2024/01/07 11:54:24;;;;;;;1.58;1.48;;;;;;;;;;6212225;23;20349;-91
2024/01/07 11:57:42;;;;;;;;;;;;;;;;;;;;;
2024/01/07 12:05:19;;;;;;;3.40;1.70;;;;;;;;;;6176664;23;20021;-89
2024/01/07 12:07:51;;;;;;;2.28;1.70;;;;;;;;;;6165673;23;20414;-90
2024/01/07 12:10:34;;;;;;;1.92;1.83;;;;;;;;;;6148601;23;20016;-90
2024/01/07 12:23:20;;;;;;;3.17;1.75;;;;;;;;;;6184772;23;20282;-89
2024/01/07 12:30:23;;;;;;;3.22;2.20;;;;;;;;;;6144705;23;20099;-88
2024/01/07 12:33:45;;;;;;;4.95;2.72;;;;;;;;;;6142377;23;20104;-91
2024/01/07 12:40:14;;;;;;;;;;;;;;;;;;;;;
2024/01/07 12:43:10;;;;;;;3.30;2.33;;;;;;;;;;6072336;23;20107;-88
2024/01/07 12:46:06;;;;;;;;;;;;;;;;;;;;;
2024/01/07 12:48:50;;;;;;;3.53;2.20;;;;;;;;;;6117168;23;20025;-88
2024/01/07 12:54:47;;;;;;;3.45;2.15;;;;;;;;;;6096669;23;20025;-88
2024/01/07 12:58:03;;;;;;;2.65;2.20;;;;;;;;;;6082066;23;20583;-89
2024/01/07 13:08:25;;;;;;;;;;;;;;;;;;;;;
2024/01/07 13:14:59;;;;;;;;;;;;;;;;;;;;;
2024/01/07 13:20:37;;;;;;;5.28;3.35;;;;;;;;;;5786227;24;20234;-89
2024/01/07 13:26:40;;;;;;;;;;;;;;;;;;;;;
2024/01/07 13:29:46;;;;;;;;;;;;;;;;;;;;;
2024/01/07 13:47:11;;;;;;;;;;;;;;;;;;;;;
2024/01/07 13:54:00;;;;;;;5.97;4.50;;;;;;;;;;5862273;24;20146;-89
2024/01/07 16:47:33;;;;;;;;;;;;;;;;;;;;;
2024/01/07 16:50:51;;;;;;;7.00;4.20;;;;;;;;;;6229925;23;20073;-86
2024/01/07 18:27:24;;;;;;;6.95;5.40;;;;;;;;;;5953513;24;20511;-86
2024/01/07 18:44:11;;;;;;;;;;;;;;;;;;;;;
2024/01/07 18:50:41;;;;;;;;;;;;;;;;;;;;;
2024/01/07 19:33:44;;;;;;;;;;;;;;;;;;;;;
